Terminal Aerodrome Forecast
Issued by NWS

Home | Current Version | Previous Version | Text Only | Print | Product List | Glossary On
Versions: 1 2 3 4 5 6 7 8 9 10 11 12
000
FTUS45 KFGZ 242300
TAFSEZ
TAF
KSEZ 242323Z 2500/2524 18007KT P6SM SKC
     FM250400 04010KT P6SM SKC
     FM251900 21012G20KT P6SM SCT060 SCT250=

USA.gov is the U.S. government's official web portal to all federal, state and local government web resources and services.